Time;durP1;ratioP1;P1;durP2;ratioP2;P2;SDS_P1;SDS_P2;PMS_P1;PMS_P2;Temp;Humidity;BMP_temperature;BMP_pressure;BME280_temperature;BME280_humidity;BME280_pressure;Samples;Min_cycle;Max_cycle;Signal;HPM_P1;HPM_P2
2022/09/04 00:01:02;;;;;;;3.20;1.17;;;;;;;;;;10526828;28;20179;-76
2022/09/04 00:06:09;;;;;;;4.13;1.65;;;;;;;;;;10530689;28;20039;-76
2022/09/04 00:11:20;;;;;;;2.80;1.30;;;;;;;;;;10531983;28;20122;-76
2022/09/04 00:16:26;;;;;;;2.67;1.50;;;;;;;;;;10522619;28;20051;-76
2022/09/04 00:21:35;;;;;;;2.65;1.20;;;;;;;;;;10534805;28;20408;-77
2022/09/04 00:26:41;;;;;;;2.28;1.30;;;;;;;;;;10509295;28;20040;-78
2022/09/04 00:31:50;;;;;;;1.67;1.20;;;;;;;;;;10513210;28;20044;-76
2022/09/04 00:36:54;;;;;;;3.20;1.20;;;;;;;;;;10530008;28;20044;-76
2022/09/04 00:42:05;;;;;;;2.20;1.60;;;;;;;;;;10520978;28;20036;-76
2022/09/04 00:47:29;;;;;;;2.30;1.58;;;;;;;;;;10534172;28;20124;-76
2022/09/04 00:52:41;;;;;;;1.95;1.08;;;;;;;;;;10524027;28;20109;-76
2022/09/04 00:58:05;;;;;;;2.38;1.17;;;;;;;;;;10511953;28;20113;-76
2022/09/04 01:03:14;;;;;;;1.45;0.90;;;;;;;;;;10527748;28;20058;-77
2022/09/04 01:08:23;;;;;;;2.50;1.42;;;;;;;;;;10529106;28;20366;-76
2022/09/04 01:13:32;;;;;;;3.05;1.40;;;;;;;;;;10544259;28;20028;-77
2022/09/04 01:18:42;;;;;;;2.53;1.33;;;;;;;;;;10550052;28;20044;-76
2022/09/04 01:24:03;;;;;;;2.17;1.20;;;;;;;;;;10574332;28;20044;-76
2022/09/04 01:29:13;;;;;;;3.60;1.30;;;;;;;;;;10577171;28;20040;-76
2022/09/04 01:34:34;;;;;;;1.40;1.10;;;;;;;;;;10541252;28;20064;-70
2022/09/04 01:39:38;;;;;;;2.30;1.30;;;;;;;;;;10525805;28;20040;-72
2022/09/04 01:44:40;;;;;;;;;;;;;;;;;;10529261;28;20457;-70
2022/09/04 01:49:50;;;;;;;3.17;1.33;;;;;;;;;;10533702;28;19947;-73
2022/09/04 01:54:55;;;;;;;2.08;1.20;;;;;;;;;;10534211;28;20040;-74
2022/09/04 02:00:02;;;;;;;1.10;0.80;;;;;;;;;;10537738;28;20032;-73
2022/09/04 02:05:17;;;;;;;2.40;1.23;;;;;;;;;;10525796;28;20047;-73
2022/09/04 02:10:28;;;;;;;1.65;1.35;;;;;;;;;;10528557;28;20136;-74
2022/09/04 02:15:34;;;;;;;2.97;1.45;;;;;;;;;;10516947;28;20056;-73
2022/09/04 02:20:44;;;;;;;2.55;1.30;;;;;;;;;;10531527;28;20068;-73
2022/09/04 02:25:59;;;;;;;1.80;1.08;;;;;;;;;;10511469;28;20545;-73
2022/09/04 02:31:05;;;;;;;1.42;0.80;;;;;;;;;;10527483;28;20128;-73
2022/09/04 02:36:12;;;;;;;1.13;0.95;;;;;;;;;;10522441;28;20381;-74
2022/09/04 02:41:19;;;;;;;1.67;1.13;;;;;;;;;;10507153;28;20067;-73
2022/09/04 02:46:26;;;;;;;2.33;1.05;;;;;;;;;;10528088;28;20039;-73
2022/09/04 02:51:46;;;;;;;4.15;1.48;;;;;;;;;;10524946;28;20047;-74
2022/09/04 02:56:51;;;;;;;2.20;1.45;;;;;;;;;;10524922;28;20072;-74
2022/09/04 03:01:58;;;;;;;3.35;1.15;;;;;;;;;;10523889;28;20043;-73
2022/09/04 03:07:06;;;;;;;2.60;1.20;;;;;;;;;;10523484;28;20032;-73
2022/09/04 03:12:25;;;;;;;1.33;1.20;;;;;;;;;;10521035;28;20111;-74
2022/09/04 03:17:31;;;;;;;1.25;0.90;;;;;;;;;;10530854;28;20047;-75
2022/09/04 03:22:39;;;;;;;1.92;1.10;;;;;;;;;;10534099;28;20029;-75
2022/09/04 03:27:42;;;;;;;1.90;1.13;;;;;;;;;;10528611;28;20074;-73
2022/09/04 03:32:50;;;;;;;1.73;1.30;;;;;;;;;;10531457;28;20090;-75
2022/09/04 03:38:06;;;;;;;3.17;1.30;;;;;;;;;;10523349;28;20048;-75
2022/09/04 03:43:23;;;;;;;2.05;0.90;;;;;;;;;;10523851;28;20054;-74
2022/09/04 03:48:34;;;;;;;2.47;1.40;;;;;;;;;;10513585;28;20086;-75
2022/09/04 03:53:40;;;;;;;2.22;1.30;;;;;;;;;;10531571;28;20191;-75
2022/09/04 03:58:45;;;;;;;2.25;1.25;;;;;;;;;;10526628;28;20554;-75
2022/09/04 04:03:56;;;;;;;2.03;1.40;;;;;;;;;;10523720;28;20048;-74
2022/09/04 04:09:02;;;;;;;;;;;;;;;;;;10526268;28;20194;-75
2022/09/04 04:14:20;;;;;;;0.95;0.75;;;;;;;;;;10525169;28;20038;-74
2022/09/04 04:19:41;;;;;;;1.98;1.10;;;;;;;;;;10529854;28;20036;-76
2022/09/04 04:24:53;;;;;;;2.38;1.27;;;;;;;;;;10530302;28;20188;-74
2022/09/04 04:30:01;;;;;;;3.90;1.40;;;;;;;;;;10527698;28;20127;-74
2022/09/04 04:35:12;;;;;;;1.98;1.27;;;;;;;;;;10526207;28;20040;-74
2022/09/04 04:40:21;;;;;;;3.00;1.35;;;;;;;;;;10525832;28;20127;-73
2022/09/04 04:50:53;;;;;;;2.13;1.10;;;;;;;;;;10523684;28;20093;-75
2022/09/04 04:55:57;;;;;;;1.55;1.00;;;;;;;;;;10487808;28;20045;-75
2022/09/04 05:01:08;;;;;;;1.83;1.15;;;;;;;;;;10482859;28;20131;-74
2022/09/04 05:06:13;;;;;;;2.47;1.30;;;;;;;;;;10480742;28;20067;-73
2022/09/04 05:11:20;;;;;;;2.05;1.20;;;;;;;;;;10482142;28;20127;-74
2022/09/04 05:16:28;;;;;;;1.48;0.85;;;;;;;;;;10471888;28;20068;-73
2022/09/04 05:21:36;;;;;;;2.67;1.40;;;;;;;;;;10483318;28;20035;-73
2022/09/04 05:26:43;;;;;;;3.00;1.60;;;;;;;;;;10479178;28;20043;-73
2022/09/04 05:31:51;;;;;;;1.92;1.23;;;;;;;;;;10480360;28;20067;-73
2022/09/04 05:37:01;;;;;;;1.70;1.40;;;;;;;;;;10486396;28;20416;-74
2022/09/04 05:42:12;;;;;;;5.20;1.38;;;;;;;;;;10486476;28;20377;-74
2022/09/04 05:47:22;;;;;;;2.30;1.50;;;;;;;;;;10493110;28;20131;-73
2022/09/04 05:52:39;;;;;;;2.63;1.48;;;;;;;;;;10507811;28;20036;-74
2022/09/04 05:57:49;;;;;;;1.98;1.20;;;;;;;;;;10537712;28;20476;-74
2022/09/04 06:03:06;;;;;;;3.00;1.42;;;;;;;;;;10521861;28;20127;-74
2022/09/04 06:08:16;;;;;;;2.70;1.38;;;;;;;;;;10518697;28;20439;-74
2022/09/04 06:13:32;;;;;;;1.88;1.30;;;;;;;;;;10532505;28;20036;-74
2022/09/04 06:18:46;;;;;;;1.65;1.05;;;;;;;;;;10526402;28;20261;-74
2022/09/04 06:24:03;;;;;;;2.28;1.27;;;;;;;;;;10508267;28;20044;-75
2022/09/04 06:29:23;;;;;;;1.35;0.98;;;;;;;;;;10525624;28;20386;-73
2022/09/04 06:34:34;;;;;;;3.08;0.98;;;;;;;;;;10521547;28;20123;-73
2022/09/04 06:39:44;;;;;;;3.05;1.50;;;;;;;;;;10523836;28;20080;-74
2022/09/04 06:44:56;;;;;;;2.20;1.52;;;;;;;;;;10524466;28;20043;-73
2022/09/04 06:50:14;;;;;;;1.20;1.10;;;;;;;;;;10522648;28;20055;-73
2022/09/04 06:55:21;;;;;;;1.60;1.50;;;;;;;;;;10534203;28;20042;-74
2022/09/04 07:00:24;;;;;;;1.38;1.15;;;;;;;;;;10534263;28;20036;-74
2022/09/04 07:05:26;;;;;;;;;;;;;;;;;;10533282;28;20067;-74
2022/09/04 07:10:33;;;;;;;1.58;1.40;;;;;;;;;;10531399;28;19927;-74
2022/09/04 07:15:43;;;;;;;1.60;1.20;;;;;;;;;;10529994;28;20505;-74
2022/09/04 07:20:54;;;;;;;1.73;1.45;;;;;;;;;;10531354;28;20079;-72
2022/09/04 07:26:02;;;;;;;2.60;1.60;;;;;;;;;;10533432;28;20131;-72
2022/09/04 07:31:08;;;;;;;1.80;1.52;;;;;;;;;;10530691;28;20072;-71
2022/09/04 07:36:15;;;;;;;1.73;1.52;;;;;;;;;;10528474;28;20055;-71
2022/09/04 07:41:23;;;;;;;1.98;1.70;;;;;;;;;;10525628;28;20040;-71
2022/09/04 07:46:32;;;;;;;2.25;1.67;;;;;;;;;;10532015;28;20040;-71
2022/09/04 07:51:38;;;;;;;1.80;1.70;;;;;;;;;;10533805;28;20395;-71
2022/09/04 07:56:53;;;;;;;1.60;1.50;;;;;;;;;;10528484;28;20089;-71
2022/09/04 08:02:02;;;;;;;3.13;1.75;;;;;;;;;;10528054;28;20051;-71
2022/09/04 08:07:07;;;;;;;2.08;1.77;;;;;;;;;;10530015;28;20032;-72
2022/09/04 08:12:22;;;;;;;2.58;1.95;;;;;;;;;;10533417;28;20070;-71
2022/09/04 08:17:32;;;;;;;2.80;1.70;;;;;;;;;;10524153;28;20097;-72
2022/09/04 08:22:42;;;;;;;2.63;2.17;;;;;;;;;;10529148;28;20126;-71
2022/09/04 08:28:00;;;;;;;2.20;2.00;;;;;;;;;;10536219;28;20119;-71
2022/09/04 08:33:17;;;;;;;2.55;1.92;;;;;;;;;;10524585;28;20044;-71
2022/09/04 08:38:34;;;;;;;3.13;2.05;;;;;;;;;;10531348;28;20063;-70
2022/09/04 08:43:57;;;;;;;2.33;1.90;;;;;;;;;;10525332;28;20048;-73
2022/09/04 08:49:20;;;;;;;3.75;1.90;;;;;;;;;;10530776;28;20052;-71
2022/09/04 08:54:47;;;;;;;2.67;2.10;;;;;;;;;;10522615;28;20113;-71
2022/09/04 09:00:00;;;;;;;2.92;1.85;;;;;;;;;;10500235;28;20105;-71
2022/09/04 09:05:17;;;;;;;2.08;1.88;;;;;;;;;;10520228;28;20127;-71
2022/09/04 09:10:34;;;;;;;2.17;2.03;;;;;;;;;;10526664;28;20559;-72
2022/09/04 09:15:52;;;;;;;1.90;1.80;;;;;;;;;;10525879;28;20032;-71
2022/09/04 09:21:01;;;;;;;2.22;1.90;;;;;;;;;;10525850;28;20134;-71
2022/09/04 09:26:21;;;;;;;1.73;1.63;;;;;;;;;;10523058;28;20048;-71
2022/09/04 09:31:42;;;;;;;2.17;1.90;;;;;;;;;;10522522;28;20040;-73
2022/09/04 09:36:54;;;;;;;3.78;2.72;;;;;;;;;;10522203;28;20494;-70
2022/09/04 09:42:15;;;;;;;3.70;2.30;;;;;;;;;;10526818;28;20534;-72
2022/09/04 09:47:31;;;;;;;2.20;2.10;;;;;;;;;;10521261;28;20177;-71
2022/09/04 09:52:48;;;;;;;3.03;1.70;;;;;;;;;;10522810;28;20097;-70
2022/09/04 09:58:03;;;;;;;5.75;4.38;;;;;;;;;;10526697;28;20044;-73
2022/09/04 10:03:25;;;;;;;5.38;2.10;;;;;;;;;;10503066;28;20120;-72
2022/09/04 10:08:41;;;;;;;2.28;2.08;;;;;;;;;;10521931;28;20032;-74
2022/09/04 10:13:53;;;;;;;2.40;2.20;;;;;;;;;;10519204;28;20124;-75
2022/09/04 10:19:15;;;;;;;2.88;2.25;;;;;;;;;;10522955;28;20428;-74
2022/09/04 10:24:34;;;;;;;3.05;1.58;;;;;;;;;;10525242;28;20040;-75
2022/09/04 10:29:36;;;;;;;;;;;;;;;;;;10479261;28;20143;-75
2022/09/04 10:34:54;;;;;;;2.22;2.03;;;;;;;;;;10532394;28;19997;-75
2022/09/04 10:45:32;;;;;;;3.00;1.52;;;;;;;;;;10531117;28;20123;-76
2022/09/04 10:50:45;;;;;;;2.20;2.10;;;;;;;;;;10529956;28;20035;-75
2022/09/04 10:55:57;;;;;;;2.90;2.10;;;;;;;;;;10525202;28;20036;-75
2022/09/04 11:01:17;;;;;;;2.50;2.30;;;;;;;;;;10511721;28;20055;-75
2022/09/04 11:06:38;;;;;;;1.85;1.60;;;;;;;;;;10528792;28;20039;-75
2022/09/04 11:11:51;;;;;;;2.45;1.58;;;;;;;;;;10528894;28;20058;-75
2022/09/04 11:17:11;;;;;;;2.22;1.98;;;;;;;;;;10534723;28;20097;-75
2022/09/04 11:22:33;;;;;;;2.20;1.97;;;;;;;;;;10527819;28;20155;-75
2022/09/04 11:27:57;;;;;;;2.20;2.00;;;;;;;;;;10533323;28;20036;-75
2022/09/04 11:33:37;;;;;;;2.60;2.40;;;;;;;;;;10530175;28;21321;-75
2022/09/04 11:38:53;;;;;;;2.08;1.77;;;;;;;;;;10531452;28;20101;-74
2022/09/04 11:44:11;;;;;;;2.08;1.30;;;;;;;;;;10529048;28;20757;-74
2022/09/04 11:49:39;;;;;;;6.13;3.90;;;;;;;;;;10531532;28;20071;-76
2022/09/04 11:55:09;;;;;;;1.38;1.27;;;;;;;;;;10509560;28;20083;-74
2022/09/04 12:00:15;;;;;;;4.47;2.00;;;;;;;;;;10529870;28;20059;-75
2022/09/04 12:05:23;;;;;;;2.45;1.83;;;;;;;;;;10526078;28;20109;-76
2022/09/04 12:10:34;;;;;;;2.78;1.55;;;;;;;;;;10526080;28;20055;-75
2022/09/04 12:15:58;;;;;;;2.77;2.13;;;;;;;;;;10527168;28;20900;-73
2022/09/04 12:21:24;;;;;;;2.97;2.40;;;;;;;;;;10527938;28;20131;-74
2022/09/04 12:26:36;;;;;;;3.55;1.63;;;;;;;;;;10525301;28;20112;-74
2022/09/04 12:32:07;;;;;;;2.55;1.77;;;;;;;;;;10525976;28;20513;-75
2022/09/04 12:37:29;;;;;;;2.17;1.70;;;;;;;;;;10523693;28;20564;-74
2022/09/04 12:42:37;;;;;;;2.03;1.70;;;;;;;;;;10529032;28;20078;-74
2022/09/04 12:47:45;;;;;;;1.70;1.60;;;;;;;;;;10532860;28;20171;-74
2022/09/04 12:53:07;;;;;;;4.40;2.83;;;;;;;;;;10524747;28;20050;-75
2022/09/04 12:58:14;;;;;;;2.08;1.88;;;;;;;;;;10530471;28;20175;-74
2022/09/04 13:03:23;;;;;;;2.28;1.70;;;;;;;;;;10528317;28;20049;-75
2022/09/04 13:08:32;;;;;;;3.42;1.45;;;;;;;;;;10528837;28;20039;-75
2022/09/04 13:13:41;;;;;;;3.22;1.80;;;;;;;;;;10507483;28;20036;-75
2022/09/04 13:18:49;;;;;;;1.60;1.40;;;;;;;;;;10530642;28;20115;-75
2022/09/04 13:23:56;;;;;;;1.98;1.42;;;;;;;;;;10529864;28;20124;-74
2022/09/04 13:29:14;;;;;;;1.75;1.45;;;;;;;;;;10528636;28;20040;-74
2022/09/04 13:34:23;;;;;;;1.80;1.58;;;;;;;;;;10526062;28;20048;-75
2022/09/04 13:39:49;;;;;;;2.97;1.90;;;;;;;;;;10521992;28;20044;-73
2022/09/04 13:45:00;;;;;;;1.80;1.50;;;;;;;;;;10527695;28;20040;-74
2022/09/04 13:50:08;;;;;;;3.30;1.65;;;;;;;;;;10528817;28;20043;-75
2022/09/04 13:55:16;;;;;;;2.25;1.70;;;;;;;;;;10523684;28;20032;-74
2022/09/04 14:00:21;;;;;;;1.98;1.23;;;;;;;;;;10530781;28;20115;-73
2022/09/04 14:05:25;;;;;;;1.42;1.30;;;;;;;;;;10531676;28;20036;-74
2022/09/04 14:10:37;;;;;;;1.42;1.10;;;;;;;;;;10524619;28;20615;-75
2022/09/04 14:15:47;;;;;;;1.30;1.20;;;;;;;;;;10523435;28;20044;-74
2022/09/04 14:20:56;;;;;;;5.32;3.05;;;;;;;;;;10522992;28;20074;-73
2022/09/04 14:26:24;;;;;;;1.90;1.35;;;;;;;;;;10526186;28;20036;-74
2022/09/04 14:31:33;;;;;;;2.03;1.20;;;;;;;;;;10520014;28;20110;-75
2022/09/04 14:36:55;;;;;;;2.50;1.50;;;;;;;;;;10529119;28;20135;-74
2022/09/04 14:42:15;;;;;;;1.38;1.20;;;;;;;;;;10523160;28;20059;-74
2022/09/04 14:47:24;;;;;;;2.40;1.40;;;;;;;;;;10526366;28;20076;-76
2022/09/04 14:52:30;;;;;;;5.35;1.60;;;;;;;;;;10520275;28;20071;-74
2022/09/04 14:57:38;;;;;;;5.15;3.00;;;;;;;;;;10529738;28;20048;-75
2022/09/04 15:02:45;;;;;;;2.00;1.42;;;;;;;;;;10525222;28;20056;-75
2022/09/04 15:07:55;;;;;;;1.77;1.27;;;;;;;;;;10532492;28;20066;-75
2022/09/04 15:13:13;;;;;;;2.00;1.30;;;;;;;;;;10526516;28;20478;-74
2022/09/04 15:18:22;;;;;;;2.85;1.58;;;;;;;;;;10499503;28;20048;-75
2022/09/04 15:23:27;;;;;;;2.63;1.40;;;;;;;;;;10531386;28;20399;-73
2022/09/04 15:28:33;;;;;;;2.35;1.10;;;;;;;;;;10531918;28;20520;-75
2022/09/04 15:33:38;;;;;;;2.15;1.13;;;;;;;;;;10530736;28;20184;-76
2022/09/04 15:38:46;;;;;;;2.17;1.40;;;;;;;;;;10530396;28;20048;-76
2022/09/04 15:43:51;;;;;;;3.22;1.90;;;;;;;;;;10506354;28;20473;-76
2022/09/04 15:48:57;;;;;;;4.10;1.40;;;;;;;;;;10533961;28;20074;-75
2022/09/04 15:54:12;;;;;;;4.78;1.50;;;;;;;;;;10527922;28;20067;-75
2022/09/04 15:59:17;;;;;;;1.20;1.10;;;;;;;;;;10532250;28;20574;-75
2022/09/04 16:04:25;;;;;;;2.33;1.52;;;;;;;;;;10529773;28;20505;-75
2022/09/04 16:09:33;;;;;;;1.48;1.35;;;;;;;;;;10528304;28;20042;-75
2022/09/04 16:14:38;;;;;;;2.22;1.20;;;;;;;;;;10523820;28;20048;-75
2022/09/04 16:19:53;;;;;;;1.83;1.30;;;;;;;;;;10529350;28;20528;-74
2022/09/04 16:25:03;;;;;;;1.38;1.10;;;;;;;;;;10528446;28;20138;-74
2022/09/04 16:30:09;;;;;;;1.60;1.30;;;;;;;;;;10526635;28;20059;-75
2022/09/04 16:35:17;;;;;;;2.58;1.60;;;;;;;;;;10528239;28;20103;-75
2022/09/04 16:40:24;;;;;;;1.95;1.33;;;;;;;;;;10530934;28;20078;-75
2022/09/04 16:45:28;;;;;;;4.00;1.73;;;;;;;;;;10527797;28;20566;-74
2022/09/04 16:50:38;;;;;;;5.25;2.03;;;;;;;;;;10529683;28;20036;-75
2022/09/04 16:55:44;;;;;;;1.85;1.33;;;;;;;;;;10531368;28;20437;-75
2022/09/04 17:00:59;;;;;;;1.80;1.30;;;;;;;;;;10529066;28;20067;-75
2022/09/04 17:06:20;;;;;;;3.28;1.70;;;;;;;;;;10529617;28;20036;-76
2022/09/04 17:11:30;;;;;;;2.55;1.45;;;;;;;;;;10527999;28;20711;-76
2022/09/04 17:16:36;;;;;;;2.92;1.45;;;;;;;;;;10527239;28;20074;-75
2022/09/04 17:27:26;;;;;;;2.88;2.03;;;;;;;;;;10526670;28;20124;-75
2022/09/04 17:32:55;;;;;;;2.90;1.70;;;;;;;;;;10525053;28;20047;-75
2022/09/04 17:38:24;;;;;;;6.53;3.25;;;;;;;;;;10525436;28;20036;-75
2022/09/04 17:44:01;;;;;;;13.57;5.45;;;;;;;;;;10525399;28;20052;-75
2022/09/04 17:49:11;;;;;;;4.68;2.75;;;;;;;;;;10525479;28;20044;-75
2022/09/04 17:54:16;;;;;;;12.50;4.78;;;;;;;;;;10529130;28;20136;-75
2022/09/04 17:59:22;;;;;;;21.42;9.35;;;;;;;;;;10511318;28;20028;-75
2022/09/04 18:04:31;;;;;;;7.13;3.22;;;;;;;;;;10529055;28;20048;-75
2022/09/04 18:09:38;;;;;;;6.53;2.63;;;;;;;;;;10528640;28;20119;-75
2022/09/04 18:14:47;;;;;;;8.50;4.18;;;;;;;;;;10527773;28;20036;-74
2022/09/04 18:20:14;;;;;;;10.55;4.05;;;;;;;;;;10532541;28;20044;-75
2022/09/04 18:25:23;;;;;;;7.72;3.47;;;;;;;;;;10527565;28;20138;-78
2022/09/04 18:30:26;;;;;;;8.70;2.92;;;;;;;;;;10525630;28;20322;-74
2022/09/04 18:35:52;;;;;;;13.20;5.30;;;;;;;;;;10524683;28;20051;-77
2022/09/04 18:41:24;;;;;;;7.30;3.47;;;;;;;;;;10520838;28;20036;-74
2022/09/04 18:46:47;;;;;;;8.70;3.70;;;;;;;;;;10524115;28;20512;-75
2022/09/04 18:52:12;;;;;;;8.00;3.20;;;;;;;;;;10532653;28;20130;-75
2022/09/04 18:57:23;;;;;;;7.93;3.40;;;;;;;;;;10530880;28;20040;-75
2022/09/04 19:02:28;;;;;;;7.75;3.30;;;;;;;;;;10531380;28;20130;-76
2022/09/04 19:07:33;;;;;;;9.80;4.75;;;;;;;;;;10529157;28;20170;-75
2022/09/04 19:12:47;;;;;;;15.23;5.60;;;;;;;;;;10525530;28;20059;-74
2022/09/04 19:17:54;;;;;;;19.50;8.70;;;;;;;;;;10530616;28;20040;-74
2022/09/04 19:23:00;;;;;;;8.90;3.80;;;;;;;;;;10528555;28;20040;-76
2022/09/04 19:28:10;;;;;;;14.27;6.13;;;;;;;;;;10508354;28;20036;-74
2022/09/04 19:33:16;;;;;;;7.95;3.92;;;;;;;;;;10533049;28;20047;-73
2022/09/04 19:38:22;;;;;;;9.15;4.20;;;;;;;;;;10531321;28;20039;-74
2022/09/04 19:43:48;;;;;;;18.30;6.75;;;;;;;;;;10529088;28;20749;-74
2022/09/04 19:49:16;;;;;;;13.25;5.60;;;;;;;;;;10529737;28;20032;-75
2022/09/04 19:54:41;;;;;;;11.55;4.38;;;;;;;;;;10524211;28;20043;-75
2022/09/04 20:00:05;;;;;;;7.35;3.90;;;;;;;;;;10527214;28;20044;-74
2022/09/04 20:05:29;;;;;;;9.40;4.35;;;;;;;;;;10527852;28;20074;-75
2022/09/04 20:10:36;;;;;;;9.43;4.95;;;;;;;;;;10527715;28;20040;-74
2022/09/04 20:15:44;;;;;;;11.02;4.45;;;;;;;;;;10526891;28;20071;-75
2022/09/04 20:20:53;;;;;;;9.95;4.10;;;;;;;;;;10528593;28;20051;-74
2022/09/04 20:25:59;;;;;;;9.60;4.47;;;;;;;;;;10525969;28;20089;-73
2022/09/04 20:31:13;;;;;;;14.73;5.65;;;;;;;;;;10524825;28;20115;-74
2022/09/04 20:36:37;;;;;;;9.32;4.15;;;;;;;;;;10527538;28;20043;-75
2022/09/04 20:41:45;;;;;;;7.63;3.55;;;;;;;;;;10526032;28;20179;-74
2022/09/04 20:46:52;;;;;;;7.10;3.25;;;;;;;;;;10510380;28;20040;-74
2022/09/04 20:52:23;;;;;;;11.20;5.80;;;;;;;;;;10527667;28;20152;-75
2022/09/04 20:58:05;;;;;;;7.45;3.25;;;;;;;;;;10529021;28;20046;-74
2022/09/04 21:03:33;;;;;;;9.40;3.67;;;;;;;;;;10509530;28;20478;-73
2022/09/04 21:08:41;;;;;;;6.70;3.30;;;;;;;;;;10521854;28;20047;-74
2022/09/04 21:13:45;;;;;;;6.68;3.15;;;;;;;;;;10520549;28;20123;-74
2022/09/04 21:18:56;;;;;;;7.32;3.10;;;;;;;;;;10520719;28;20055;-74
2022/09/04 21:24:32;;;;;;;6.18;2.97;;;;;;;;;;10524741;28;20064;-75
2022/09/04 21:29:46;;;;;;;6.15;2.95;;;;;;;;;;10526443;28;20136;-75
2022/09/04 21:34:55;;;;;;;5.82;2.90;;;;;;;;;;10529242;28;20048;-74
2022/09/04 21:40:27;;;;;;;7.72;3.25;;;;;;;;;;10523173;28;20064;-76
2022/09/04 21:46:02;;;;;;;6.25;3.38;;;;;;;;;;10429326;28;20567;-75
2022/09/04 21:51:20;;;;;;;6.63;3.33;;;;;;;;;;10522866;28;20473;-74
2022/09/04 21:56:37;;;;;;;5.93;3.20;;;;;;;;;;10525187;28;20051;-74
2022/09/04 22:02:06;;;;;;;6.35;3.33;;;;;;;;;;10524179;28;20047;-75
2022/09/04 22:07:32;;;;;;;8.30;3.92;;;;;;;;;;10522013;28;20036;-74
2022/09/04 22:12:59;;;;;;;7.03;3.53;;;;;;;;;;10528304;28;20327;-73
2022/09/04 22:18:40;;;;;;;6.53;3.30;;;;;;;;;;10521617;28;20038;-76
2022/09/04 22:24:00;;;;;;;8.23;3.60;;;;;;;;;;10530919;28;20110;-76
2022/09/04 22:29:16;;;;;;;6.25;3.33;;;;;;;;;;10532490;28;20154;-75
2022/09/04 22:34:52;;;;;;;6.05;3.30;;;;;;;;;;10527974;28;20074;-74
2022/09/04 22:40:14;;;;;;;6.22;3.08;;;;;;;;;;10455218;28;20060;-74
2022/09/04 22:45:32;;;;;;;7.13;3.33;;;;;;;;;;10534851;28;20114;-74
2022/09/04 22:50:47;;;;;;;5.95;3.22;;;;;;;;;;10506013;28;20048;-74
2022/09/04 22:55:54;;;;;;;6.80;3.13;;;;;;;;;;10535930;28;20056;-74
2022/09/04 23:01:35;;;;;;;6.03;3.10;;;;;;;;;;10538137;28;20050;-75
2022/09/04 23:06:49;;;;;;;6.30;3.22;;;;;;;;;;10511161;28;20531;-74
2022/09/04 23:12:27;;;;;;;5.20;2.88;;;;;;;;;;10532281;28;20660;-74
2022/09/04 23:17:57;;;;;;;4.55;2.30;;;;;;;;;;10531026;28;20032;-75
2022/09/04 23:23:35;;;;;;;7.43;3.10;;;;;;;;;;10525572;28;20044;-75
2022/09/04 23:29:10;;;;;;;8.52;2.95;;;;;;;;;;10519718;28;20526;-74
2022/09/04 23:34:29;;;;;;;3.88;2.58;;;;;;;;;;10531676;28;20650;-75
2022/09/04 23:39:42;;;;;;;4.55;2.45;;;;;;;;;;10534962;28;20071;-75
2022/09/04 23:44:53;;;;;;;5.13;2.67;;;;;;;;;;10531209;28;20584;-75
2022/09/04 23:49:58;;;;;;;4.55;3.08;;;;;;;;;;10529014;28;20044;-75
2022/09/04 23:55:19;;;;;;;5.80;2.90;;;;;;;;;;10529260;28;20488;-74
